DAL1436 KBOS-KDCA
Flight info
| Callsign | DAL1436 |
|---|---|
| Flight time | 1h 17m |
| Altitude | 36000 |
| Route | SSOXS7 SSOXS Q167 ZIZZI KNUKK ATR LAFLN DEALE3 |
| Aircraft | A321/M-SDE3FGHIRWY/LB1 |
Departure
| Time | 2026-05-08 01:19 |
|---|---|
| Airport | Boston Logan International Airport (KBOS) |
Arrival
| Time | 2026-05-08 02:36 |
|---|---|
| Airport | Ronald Reagan Washington National Airport (KDCA) |
| Time | Latitude | Longitude | Altitude | Speed | Heading |
|---|---|---|---|---|---|
| 2026-05-08 00:35 | 42.36227 | -71.02441 | 27 ft | 0 kts | 274° |
| 2026-05-08 00:35 | 42.36187 | -71.02445 | 27 ft | 0 kts | 274° |
| 2026-05-08 01:00 | 42.36186 | -71.02416 | 30 ft | 4 kts | 271° |
| 2026-05-08 01:01 | 42.36187 | -71.02380 | 21 ft | 4 kts | 257° |
| 2026-05-08 01:01 | 42.36197 | -71.02351 | 27 ft | 4 kts | 205° |
| 2026-05-08 01:01 | 42.36208 | -71.02347 | 30 ft | 1 kts | 184° |
| 2026-05-08 01:01 | 42.36209 | -71.02347 | 30 ft | 0 kts | 184° |
| 2026-05-08 01:07 | 42.36205 | -71.02347 | 27 ft | 3 kts | 184° |
| 2026-05-08 01:08 | 42.36140 | -71.02352 | 27 ft | 11 kts | 178° |
| 2026-05-08 01:08 | 42.36075 | -71.02311 | 25 ft | 10 kts | 147° |
| 2026-05-08 01:08 | 42.36032 | -71.02255 | 27 ft | 8 kts | 125° |
| 2026-05-08 01:08 | 42.36001 | -71.02187 | 27 ft | 12 kts | 122° |
| 2026-05-08 01:09 | 42.35942 | -71.02053 | 28 ft | 18 kts | 121° |
| 2026-05-08 01:09 | 42.35882 | -71.01918 | 25 ft | 16 kts | 121° |
| 2026-05-08 01:09 | 42.35845 | -71.01781 | 29 ft | 15 kts | 102° |
| 2026-05-08 01:09 | 42.35826 | -71.01663 | 27 ft | 10 kts | 103° |
| 2026-05-08 01:10 | 42.35830 | -71.01585 | 25 ft | 7 kts | 52° |
| 2026-05-08 01:10 | 42.35885 | -71.01552 | 25 ft | 14 kts | 19° |
| 2026-05-08 01:10 | 42.35996 | -71.01497 | 28 ft | 17 kts | 20° |
| 2026-05-08 01:10 | 42.36107 | -71.01444 | 28 ft | 17 kts | 19° |
| 2026-05-08 01:11 | 42.36213 | -71.01393 | 27 ft | 16 kts | 20° |
| 2026-05-08 01:11 | 42.36310 | -71.01338 | 28 ft | 14 kts | 40° |
| 2026-05-08 01:11 | 42.36296 | -71.01229 | 28 ft | 12 kts | 118° |
| 2026-05-08 01:11 | 42.36258 | -71.01133 | 27 ft | 13 kts | 118° |
| 2026-05-08 01:12 | 42.36200 | -71.00968 | 26 ft | 19 kts | 114° |
| 2026-05-08 01:12 | 42.36152 | -71.00823 | 29 ft | 15 kts | 114° |
| 2026-05-08 01:12 | 42.36114 | -71.00700 | 26 ft | 13 kts | 109° |
| 2026-05-08 01:12 | 42.36082 | -71.00572 | 27 ft | 15 kts | 109° |
| 2026-05-08 01:13 | 42.36050 | -71.00446 | 27 ft | 14 kts | 108° |
| 2026-05-08 01:13 | 42.36020 | -71.00327 | 26 ft | 13 kts | 109° |
| 2026-05-08 01:13 | 42.35991 | -71.00212 | 28 ft | 13 kts | 108° |
| 2026-05-08 01:13 | 42.35964 | -71.00117 | 27 ft | 9 kts | 114° |
| 2026-05-08 01:14 | 42.35930 | -71.00049 | 25 ft | 9 kts | 138° |
| 2026-05-08 01:14 | 42.35894 | -71.00002 | 25 ft | 2 kts | 136° |
| 2026-05-08 01:14 | 42.35894 | -71.00001 | 25 ft | 1 kts | 136° |
| 2026-05-08 01:14 | 42.35854 | -70.99947 | 29 ft | 15 kts | 134° |
| 2026-05-08 01:15 | 42.35781 | -70.99849 | 25 ft | 14 kts | 136° |
| 2026-05-08 01:15 | 42.35712 | -70.99758 | 27 ft | 13 kts | 136° |
| 2026-05-08 01:15 | 42.35637 | -70.99659 | 27 ft | 16 kts | 136° |
| 2026-05-08 01:15 | 42.35563 | -70.99559 | 30 ft | 14 kts | 133° |
| 2026-05-08 01:16 | 42.35499 | -70.99468 | 28 ft | 13 kts | 129° |
| 2026-05-08 01:16 | 42.35495 | -70.99373 | 25 ft | 8 kts | 80° |
| 2026-05-08 01:16 | 42.35509 | -70.99304 | 25 ft | 7 kts | 69° |
| 2026-05-08 01:16 | 42.35543 | -70.99276 | 26 ft | 6 kts | 347° |
| 2026-05-08 01:17 | 42.35557 | -70.99291 | 26 ft | 0 kts | 318° |
| 2026-05-08 01:17 | 42.35559 | -70.99294 | 26 ft | 3 kts | 318° |
| 2026-05-08 01:18 | 42.35689 | -70.99465 | 26 ft | 59 kts | 315° |
| 2026-05-08 01:18 | 42.36131 | -71.00058 | 23 ft | 117 kts | 315° |
| 2026-05-08 01:18 | 42.36806 | -71.00963 | 44 ft | 157 kts | 314° |
| 2026-05-08 01:18 | 42.37555 | -71.02085 | 453 ft | 164 kts | 303° |
| 2026-05-08 01:19 | 42.38192 | -71.03391 | 989 ft | 168 kts | 302° |
| 2026-05-08 01:19 | 42.38817 | -71.04752 | 1526 ft | 171 kts | 300° |
| 2026-05-08 01:19 | 42.39418 | -71.06184 | 2026 ft | 178 kts | 298° |
| 2026-05-08 01:19 | 42.40017 | -71.07686 | 2475 ft | 187 kts | 298° |
| 2026-05-08 01:20 | 42.40619 | -71.09368 | 2760 ft | 211 kts | 289° |
| 2026-05-08 01:20 | 42.40754 | -71.11444 | 3196 ft | 231 kts | 262° |
| 2026-05-08 01:20 | 42.40087 | -71.13492 | 3770 ft | 249 kts | 234° |
| 2026-05-08 01:20 | 42.38832 | -71.15143 | 4449 ft | 260 kts | 225° |
| 2026-05-08 01:21 | 42.37510 | -71.16835 | 5247 ft | 263 kts | 230° |
| 2026-05-08 01:21 | 42.36126 | -71.18491 | 6062 ft | 270 kts | 215° |
| 2026-05-08 01:21 | 42.34374 | -71.19474 | 6831 ft | 278 kts | 192° |
| 2026-05-08 01:21 | 42.32425 | -71.19385 | 7610 ft | 287 kts | 167° |
| 2026-05-08 01:22 | 42.30535 | -71.18507 | 8395 ft | 291 kts | 163° |
| 2026-05-08 01:22 | 42.28623 | -71.17561 | 9169 ft | 294 kts | 163° |
| 2026-05-08 01:22 | 42.26691 | -71.16584 | 9901 ft | 299 kts | 160° |
| 2026-05-08 01:22 | 42.24865 | -71.15181 | 10564 ft | 307 kts | 147° |
| 2026-05-08 01:23 | 42.23202 | -71.13277 | 10975 ft | 324 kts | 143° |
| 2026-05-08 01:23 | 42.21462 | -71.11242 | 11122 ft | 347 kts | 143° |
| 2026-05-08 01:23 | 42.19577 | -71.09048 | 11252 ft | 369 kts | 143° |
| 2026-05-08 01:23 | 42.17599 | -71.06748 | 11577 ft | 381 kts | 143° |
| 2026-05-08 01:24 | 42.15576 | -71.04400 | 12196 ft | 385 kts | 145° |
| 2026-05-08 01:24 | 42.13412 | -71.02274 | 12846 ft | 386 kts | 151° |
| 2026-05-08 01:24 | 42.11199 | -71.00205 | 13508 ft | 389 kts | 151° |
| 2026-05-08 01:24 | 42.08961 | -70.98122 | 14105 ft | 392 kts | 152° |
| 2026-05-08 01:25 | 42.06713 | -70.96031 | 14728 ft | 393 kts | 153° |
| 2026-05-08 01:25 | 42.04457 | -70.93933 | 15344 ft | 395 kts | 153° |
| 2026-05-08 01:25 | 42.02225 | -70.91852 | 15956 ft | 396 kts | 154° |
| 2026-05-08 01:25 | 41.99956 | -70.89736 | 16537 ft | 398 kts | 154° |
| 2026-05-08 01:26 | 41.97681 | -70.87614 | 17075 ft | 400 kts | 154° |
| 2026-05-08 01:26 | 41.95388 | -70.85476 | 17604 ft | 403 kts | 155° |
| 2026-05-08 01:26 | 41.93078 | -70.83327 | 18160 ft | 405 kts | 155° |
| 2026-05-08 01:26 | 41.90753 | -70.81173 | 18611 ft | 406 kts | 156° |
| 2026-05-08 01:27 | 41.88312 | -70.79377 | 19031 ft | 396 kts | 167° |
| 2026-05-08 01:27 | 41.85722 | -70.78292 | 19463 ft | 385 kts | 178° |
| 2026-05-08 01:27 | 41.83094 | -70.77908 | 19884 ft | 376 kts | 188° |
| 2026-05-08 01:27 | 41.80545 | -70.78180 | 20297 ft | 369 kts | 198° |
| 2026-05-08 01:28 | 41.78091 | -70.79071 | 20658 ft | 364 kts | 207° |
| 2026-05-08 01:28 | 41.75816 | -70.80523 | 21056 ft | 361 kts | 215° |
| 2026-05-08 01:28 | 41.73619 | -70.82188 | 21487 ft | 364 kts | 215° |
| 2026-05-08 01:28 | 41.71402 | -70.83859 | 21915 ft | 367 kts | 214° |
| 2026-05-08 01:29 | 41.69164 | -70.85536 | 22339 ft | 370 kts | 214° |
| 2026-05-08 01:29 | 41.66906 | -70.87224 | 22760 ft | 373 kts | 214° |
| 2026-05-08 01:29 | 41.64632 | -70.88923 | 23219 ft | 375 kts | 214° |
| 2026-05-08 01:29 | 41.62351 | -70.90623 | 23633 ft | 377 kts | 215° |
| 2026-05-08 01:30 | 41.60058 | -70.92336 | 23954 ft | 379 kts | 215° |
| 2026-05-08 01:30 | 41.57751 | -70.94063 | 24286 ft | 381 kts | 216° |
| 2026-05-08 01:30 | 41.55576 | -70.96040 | 24614 ft | 377 kts | 224° |
| 2026-05-08 01:30 | 41.53712 | -70.98477 | 24961 ft | 374 kts | 233° |
| 2026-05-08 01:31 | 41.52204 | -71.01241 | 25298 ft | 374 kts | 238° |
| 2026-05-08 01:31 | 41.50765 | -71.04136 | 25624 ft | 375 kts | 238° |
| 2026-05-08 01:31 | 41.49312 | -71.07033 | 25977 ft | 377 kts | 238° |
| 2026-05-08 01:31 | 41.47848 | -71.09941 | 26289 ft | 378 kts | 238° |
| 2026-05-08 01:32 | 41.46382 | -71.12854 | 26611 ft | 380 kts | 238° |
| 2026-05-08 01:32 | 41.44908 | -71.15786 | 26901 ft | 381 kts | 238° |
| 2026-05-08 01:32 | 41.43428 | -71.18727 | 27202 ft | 383 kts | 239° |
| 2026-05-08 01:32 | 41.41942 | -71.21681 | 27511 ft | 385 kts | 239° |
| 2026-05-08 01:33 | 41.40450 | -71.24643 | 27831 ft | 386 kts | 239° |
| 2026-05-08 01:33 | 41.38951 | -71.27618 | 28140 ft | 387 kts | 239° |
| 2026-05-08 01:33 | 41.37451 | -71.30593 | 28525 ft | 386 kts | 239° |
| 2026-05-08 01:33 | 41.35956 | -71.33558 | 28958 ft | 384 kts | 239° |
| 2026-05-08 01:34 | 41.34489 | -71.36460 | 29381 ft | 382 kts | 239° |
| 2026-05-08 01:34 | 41.33008 | -71.39389 | 29807 ft | 381 kts | 239° |
| 2026-05-08 01:34 | 41.31532 | -71.42306 | 30171 ft | 379 kts | 239° |
| 2026-05-08 01:34 | 41.30061 | -71.45210 | 30505 ft | 378 kts | 239° |
| 2026-05-08 01:35 | 41.28595 | -71.48103 | 30837 ft | 377 kts | 239° |
| 2026-05-08 01:35 | 41.27134 | -71.50995 | 31164 ft | 376 kts | 239° |
| 2026-05-08 01:35 | 41.26169 | -71.52903 | 31375 ft | 376 kts | 239° |
| 2026-05-08 01:35 | 41.24217 | -71.56750 | 31872 ft | 374 kts | 239° |
| 2026-05-08 01:36 | 41.22764 | -71.59605 | 32256 ft | 372 kts | 239° |
| 2026-05-08 01:36 | 41.21319 | -71.62442 | 32619 ft | 370 kts | 239° |
| 2026-05-08 01:36 | 41.19876 | -71.65274 | 32955 ft | 369 kts | 239° |
| 2026-05-08 01:36 | 41.18457 | -71.68059 | 33278 ft | 369 kts | 239° |
| 2026-05-08 01:37 | 41.17020 | -71.70873 | 33602 ft | 368 kts | 239° |
| 2026-05-08 01:37 | 41.15587 | -71.73682 | 33906 ft | 367 kts | 239° |
| 2026-05-08 01:37 | 41.14157 | -71.76485 | 34140 ft | 367 kts | 239° |
| 2026-05-08 01:37 | 41.12732 | -71.79284 | 34414 ft | 365 kts | 239° |
| 2026-05-08 01:38 | 41.11313 | -71.82075 | 34690 ft | 365 kts | 239° |
| 2026-05-08 01:38 | 41.09898 | -71.84859 | 34933 ft | 364 kts | 239° |
| 2026-05-08 01:38 | 41.08484 | -71.87640 | 35182 ft | 363 kts | 239° |
| 2026-05-08 01:38 | 41.07089 | -71.90376 | 35427 ft | 363 kts | 239° |
| 2026-05-08 01:39 | 41.05677 | -71.93142 | 35708 ft | 362 kts | 239° |
| 2026-05-08 01:39 | 41.04265 | -71.95906 | 35857 ft | 362 kts | 239° |
| 2026-05-08 01:39 | 41.03000 | -71.98757 | 35897 ft | 358 kts | 246° |
| 2026-05-08 01:40 | 41.00905 | -72.04731 | 35896 ft | 357 kts | 246° |
| 2026-05-08 01:40 | 40.98810 | -72.10689 | 35869 ft | 357 kts | 246° |
| 2026-05-08 01:41 | 40.96706 | -72.16641 | 35886 ft | 357 kts | 247° |
| 2026-05-08 01:41 | 40.94617 | -72.22555 | 35908 ft | 357 kts | 246° |
| 2026-05-08 01:42 | 40.92503 | -72.28500 | 35933 ft | 357 kts | 245° |
| 2026-05-08 01:42 | 40.89562 | -72.33820 | 35928 ft | 365 kts | 230° |
| 2026-05-08 01:43 | 40.85940 | -72.38521 | 35914 ft | 365 kts | 230° |
| 2026-05-08 01:43 | 40.82349 | -72.43210 | 35863 ft | 366 kts | 230° |
| 2026-05-08 01:44 | 40.78602 | -72.47800 | 35884 ft | 370 kts | 226° |
| 2026-05-08 01:44 | 40.74625 | -72.52122 | 35878 ft | 370 kts | 226° |
| 2026-05-08 01:45 | 40.70635 | -72.56421 | 35882 ft | 370 kts | 226° |
| 2026-05-08 01:45 | 40.66683 | -72.60757 | 35934 ft | 369 kts | 227° |
| 2026-05-08 01:46 | 40.62826 | -72.65223 | 35862 ft | 369 kts | 228° |
| 2026-05-08 01:46 | 40.59015 | -72.69670 | 35871 ft | 369 kts | 227° |
| 2026-05-08 01:47 | 40.55156 | -72.74118 | 35886 ft | 369 kts | 227° |
| 2026-05-08 01:47 | 40.51286 | -72.78551 | 35888 ft | 369 kts | 227° |
| 2026-05-08 01:48 | 40.45476 | -72.85189 | 35851 ft | 369 kts | 227° |
| 2026-05-08 01:48 | 40.41627 | -72.89575 | 35860 ft | 369 kts | 227° |
| 2026-05-08 01:49 | 40.37748 | -72.93989 | 35872 ft | 369 kts | 227° |
| 2026-05-08 01:49 | 40.33868 | -72.98406 | 35907 ft | 370 kts | 227° |
| 2026-05-08 01:50 | 40.29982 | -73.02820 | 35907 ft | 370 kts | 227° |
| 2026-05-08 01:50 | 40.26110 | -73.07212 | 35874 ft | 371 kts | 227° |
| 2026-05-08 01:51 | 40.22200 | -73.11636 | 35884 ft | 372 kts | 227° |
| 2026-05-08 01:51 | 40.18285 | -73.16058 | 35897 ft | 372 kts | 227° |
| 2026-05-08 01:52 | 40.14363 | -73.20470 | 35901 ft | 372 kts | 227° |
| 2026-05-08 01:52 | 40.10444 | -73.24880 | 35890 ft | 372 kts | 227° |
| 2026-05-08 01:53 | 40.06509 | -73.29310 | 35893 ft | 374 kts | 227° |
| 2026-05-08 01:53 | 40.02592 | -73.33701 | 35920 ft | 374 kts | 227° |
| 2026-05-08 01:54 | 39.98645 | -73.38117 | 35923 ft | 374 kts | 227° |
| 2026-05-08 01:54 | 39.95361 | -73.41780 | 35919 ft | 374 kts | 227° |
| 2026-05-08 01:55 | 39.90740 | -73.46937 | 35874 ft | 374 kts | 228° |
| 2026-05-08 01:55 | 39.86803 | -73.51322 | 35879 ft | 375 kts | 227° |
| 2026-05-08 01:56 | 39.82831 | -73.55750 | 35888 ft | 376 kts | 227° |
| 2026-05-08 01:56 | 39.78856 | -73.60174 | 35904 ft | 376 kts | 227° |
| 2026-05-08 01:57 | 39.74874 | -73.64595 | 35913 ft | 377 kts | 227° |
| 2026-05-08 01:57 | 39.70917 | -73.68986 | 35915 ft | 377 kts | 228° |
| 2026-05-08 01:58 | 39.67576 | -73.72694 | 35920 ft | 377 kts | 228° |
| 2026-05-08 01:58 | 39.62954 | -73.77816 | 35924 ft | 377 kts | 228° |
| 2026-05-08 01:59 | 39.58958 | -73.82230 | 35930 ft | 377 kts | 228° |
| 2026-05-08 01:59 | 39.54966 | -73.86628 | 35932 ft | 377 kts | 228° |
| 2026-05-08 02:00 | 39.50966 | -73.91023 | 35924 ft | 377 kts | 228° |
| 2026-05-08 02:00 | 39.46978 | -73.95402 | 35915 ft | 376 kts | 228° |
| 2026-05-08 02:01 | 39.43021 | -73.99754 | 35923 ft | 376 kts | 228° |
| 2026-05-08 02:01 | 39.39027 | -74.04137 | 35957 ft | 376 kts | 228° |
| 2026-05-08 02:02 | 39.35029 | -74.08507 | 35910 ft | 376 kts | 228° |
| 2026-05-08 02:02 | 39.31030 | -74.12871 | 35919 ft | 376 kts | 228° |
| 2026-05-08 02:03 | 39.27701 | -74.16499 | 35926 ft | 377 kts | 228° |
| 2026-05-08 02:03 | 39.23021 | -74.21592 | 35930 ft | 377 kts | 228° |
| 2026-05-08 02:04 | 39.19042 | -74.25911 | 35928 ft | 376 kts | 228° |
| 2026-05-08 02:04 | 39.15036 | -74.30261 | 35888 ft | 377 kts | 228° |
| 2026-05-08 02:05 | 39.11016 | -74.34614 | 35911 ft | 378 kts | 228° |
| 2026-05-08 02:05 | 39.06993 | -74.38961 | 35944 ft | 378 kts | 228° |
| 2026-05-08 02:06 | 39.02999 | -74.43270 | 35943 ft | 377 kts | 228° |
| 2026-05-08 02:06 | 38.98981 | -74.47602 | 35943 ft | 377 kts | 228° |
| 2026-05-08 02:07 | 38.95265 | -74.52223 | 35916 ft | 365 kts | 240° |
| 2026-05-08 02:07 | 38.93092 | -74.57959 | 35921 ft | 355 kts | 257° |
| 2026-05-08 02:08 | 38.92106 | -74.63069 | 35925 ft | 355 kts | 257° |
| 2026-05-08 02:08 | 38.90702 | -74.70215 | 35927 ft | 355 kts | 257° |
| 2026-05-08 02:09 | 38.89701 | -74.75329 | 35931 ft | 355 kts | 257° |
| 2026-05-08 02:09 | 38.89103 | -74.78415 | 35488 ft | 356 kts | 258° |
| 2026-05-08 02:09 | 38.88519 | -74.81500 | 34922 ft | 356 kts | 258° |
| 2026-05-08 02:10 | 38.87941 | -74.84573 | 34364 ft | 352 kts | 258° |
| 2026-05-08 02:10 | 38.87368 | -74.87618 | 33800 ft | 351 kts | 258° |
| 2026-05-08 02:10 | 38.86796 | -74.90659 | 33161 ft | 351 kts | 258° |
| 2026-05-08 02:10 | 38.86035 | -74.94701 | 32338 ft | 353 kts | 258° |
| 2026-05-08 02:11 | 38.85645 | -74.96774 | 31917 ft | 354 kts | 258° |
| 2026-05-08 02:11 | 38.85065 | -74.99855 | 31337 ft | 356 kts | 257° |
| 2026-05-08 02:11 | 38.84483 | -75.02914 | 30741 ft | 359 kts | 257° |
| 2026-05-08 02:11 | 38.83885 | -75.06024 | 30117 ft | 361 kts | 257° |
| 2026-05-08 02:12 | 38.83281 | -75.09157 | 29501 ft | 363 kts | 257° |
| 2026-05-08 02:12 | 38.82670 | -75.12317 | 28839 ft | 366 kts | 257° |
| 2026-05-08 02:12 | 38.82057 | -75.15497 | 28198 ft | 369 kts | 257° |
| 2026-05-08 02:12 | 38.81442 | -75.18700 | 27555 ft | 371 kts | 257° |
| 2026-05-08 02:13 | 38.80931 | -75.21945 | 26959 ft | 373 kts | 263° |
| 2026-05-08 02:13 | 38.80725 | -75.25256 | 26354 ft | 372 kts | 264° |
| 2026-05-08 02:13 | 38.80530 | -75.28564 | 25764 ft | 371 kts | 264° |
| 2026-05-08 02:13 | 38.80328 | -75.31848 | 25199 ft | 369 kts | 264° |
| 2026-05-08 02:14 | 38.80126 | -75.35063 | 24975 ft | 363 kts | 264° |
| 2026-05-08 02:14 | 38.79924 | -75.38254 | 24929 ft | 354 kts | 264° |
| 2026-05-08 02:14 | 38.79730 | -75.41360 | 24937 ft | 345 kts | 264° |
| 2026-05-08 02:14 | 38.79539 | -75.44395 | 24947 ft | 338 kts | 264° |
| 2026-05-08 02:15 | 38.79350 | -75.47366 | 24945 ft | 331 kts | 264° |
| 2026-05-08 02:15 | 38.79161 | -75.50281 | 24943 ft | 325 kts | 264° |
| 2026-05-08 02:15 | 38.78977 | -75.53147 | 24937 ft | 320 kts | 264° |
| 2026-05-08 02:15 | 38.78798 | -75.55965 | 24935 ft | 315 kts | 264° |
| 2026-05-08 02:16 | 38.78623 | -75.58745 | 24931 ft | 311 kts | 264° |
| 2026-05-08 02:16 | 38.78450 | -75.61494 | 24521 ft | 319 kts | 264° |
| 2026-05-08 02:16 | 38.78265 | -75.64367 | 24083 ft | 327 kts | 264° |
| 2026-05-08 02:16 | 38.78074 | -75.67302 | 23655 ft | 334 kts | 264° |
| 2026-05-08 02:17 | 38.77878 | -75.70293 | 23165 ft | 340 kts | 264° |
| 2026-05-08 02:17 | 38.77677 | -75.73337 | 22650 ft | 345 kts | 264° |
| 2026-05-08 02:17 | 38.77472 | -75.76423 | 22144 ft | 350 kts | 264° |
| 2026-05-08 02:17 | 38.77264 | -75.79552 | 21666 ft | 354 kts | 264° |
| 2026-05-08 02:18 | 38.77053 | -75.82704 | 21185 ft | 355 kts | 264° |
| 2026-05-08 02:18 | 38.76845 | -75.85847 | 20706 ft | 354 kts | 264° |
| 2026-05-08 02:18 | 38.76640 | -75.88943 | 20237 ft | 353 kts | 264° |
| 2026-05-08 02:18 | 38.76432 | -75.92072 | 19770 ft | 352 kts | 264° |
| 2026-05-08 02:19 | 38.76224 | -75.95188 | 19336 ft | 351 kts | 264° |
| 2026-05-08 02:19 | 38.76012 | -75.98297 | 18886 ft | 350 kts | 263° |
| 2026-05-08 02:19 | 38.75800 | -76.01399 | 18443 ft | 349 kts | 263° |
| 2026-05-08 02:19 | 38.75589 | -76.04495 | 17963 ft | 348 kts | 263° |
| 2026-05-08 02:20 | 38.75543 | -76.07591 | 17455 ft | 348 kts | 272° |
| 2026-05-08 02:20 | 38.75827 | -76.10667 | 16964 ft | 347 kts | 274° |
| 2026-05-08 02:20 | 38.76117 | -76.13722 | 16466 ft | 345 kts | 274° |
| 2026-05-08 02:20 | 38.76400 | -76.16715 | 15999 ft | 342 kts | 274° |
| 2026-05-08 02:21 | 38.76683 | -76.19725 | 15522 ft | 339 kts | 274° |
| 2026-05-08 02:21 | 38.76962 | -76.22721 | 15049 ft | 338 kts | 274° |
| 2026-05-08 02:21 | 38.77240 | -76.25702 | 14586 ft | 336 kts | 274° |
| 2026-05-08 02:21 | 38.77517 | -76.28674 | 14133 ft | 335 kts | 274° |
| 2026-05-08 02:22 | 38.77792 | -76.31632 | 13675 ft | 334 kts | 274° |
| 2026-05-08 02:22 | 38.78065 | -76.34581 | 13165 ft | 333 kts | 274° |
| 2026-05-08 02:22 | 38.78335 | -76.37517 | 12663 ft | 331 kts | 274° |
| 2026-05-08 02:22 | 38.78604 | -76.40440 | 12165 ft | 329 kts | 275° |
| 2026-05-08 02:23 | 38.78867 | -76.43308 | 11688 ft | 328 kts | 275° |
| 2026-05-08 02:23 | 38.79129 | -76.46184 | 11211 ft | 322 kts | 276° |
| 2026-05-08 02:23 | 38.79385 | -76.49006 | 10739 ft | 317 kts | 276° |
| 2026-05-08 02:23 | 38.79638 | -76.51789 | 10289 ft | 312 kts | 277° |
| 2026-05-08 02:24 | 38.79862 | -76.54515 | 10037 ft | 301 kts | 275° |
| 2026-05-08 02:24 | 38.79989 | -76.57117 | 10024 ft | 284 kts | 274° |
| 2026-05-08 02:24 | 38.80061 | -76.59570 | 10027 ft | 267 kts | 273° |
| 2026-05-08 02:24 | 38.80115 | -76.61884 | 10022 ft | 255 kts | 273° |
| 2026-05-08 02:25 | 38.80171 | -76.64144 | 9579 ft | 250 kts | 274° |
| 2026-05-08 02:25 | 38.80232 | -76.66349 | 9098 ft | 251 kts | 274° |
| 2026-05-08 02:25 | 38.80297 | -76.68591 | 8624 ft | 252 kts | 274° |
| 2026-05-08 02:25 | 38.80367 | -76.70842 | 8153 ft | 253 kts | 274° |
| 2026-05-08 02:26 | 38.80439 | -76.73085 | 7692 ft | 253 kts | 275° |
| 2026-05-08 02:26 | 38.80519 | -76.75344 | 7243 ft | 256 kts | 277° |
| 2026-05-08 02:26 | 38.80864 | -76.77549 | 7039 ft | 251 kts | 290° |
| 2026-05-08 02:26 | 38.81591 | -76.79589 | 7032 ft | 252 kts | 302° |
| 2026-05-08 02:27 | 38.82632 | -76.81396 | 6928 ft | 254 kts | 309° |
| 2026-05-08 02:27 | 38.83732 | -76.83157 | 6633 ft | 252 kts | 309° |
| 2026-05-08 02:27 | 38.84826 | -76.84913 | 6335 ft | 252 kts | 309° |
| 2026-05-08 02:27 | 38.85917 | -76.86666 | 6016 ft | 251 kts | 309° |
| 2026-05-08 02:28 | 38.87004 | -76.88412 | 5708 ft | 250 kts | 308° |
| 2026-05-08 02:28 | 38.88101 | -76.90095 | 5403 ft | 249 kts | 314° |
| 2026-05-08 02:28 | 38.89328 | -76.91661 | 5116 ft | 248 kts | 314° |
| 2026-05-08 02:28 | 38.90565 | -76.93239 | 5037 ft | 247 kts | 314° |
| 2026-05-08 02:29 | 38.91771 | -76.94783 | 5044 ft | 248 kts | 314° |
| 2026-05-08 02:29 | 38.92993 | -76.96349 | 5045 ft | 248 kts | 314° |
| 2026-05-08 02:29 | 38.94217 | -76.97916 | 5044 ft | 249 kts | 314° |
| 2026-05-08 02:29 | 38.95445 | -76.99484 | 5025 ft | 250 kts | 314° |
| 2026-05-08 02:30 | 38.96675 | -77.01056 | 4771 ft | 248 kts | 315° |
| 2026-05-08 02:30 | 38.97893 | -77.02615 | 4471 ft | 247 kts | 315° |
| 2026-05-08 02:30 | 38.99108 | -77.04172 | 4160 ft | 247 kts | 314° |
| 2026-05-08 02:30 | 39.00326 | -77.05734 | 3840 ft | 248 kts | 314° |
| 2026-05-08 02:31 | 39.01530 | -77.07313 | 3453 ft | 246 kts | 309° |
| 2026-05-08 02:31 | 39.02322 | -77.09200 | 3097 ft | 243 kts | 285° |
| 2026-05-08 02:31 | 39.02401 | -77.11305 | 3035 ft | 231 kts | 261° |
| 2026-05-08 02:31 | 39.01829 | -77.13147 | 3059 ft | 216 kts | 239° |
| 2026-05-08 02:32 | 39.00790 | -77.14474 | 3039 ft | 210 kts | 216° |
| 2026-05-08 02:32 | 38.99467 | -77.15155 | 3040 ft | 199 kts | 194° |
| 2026-05-08 02:32 | 38.98151 | -77.15249 | 3029 ft | 181 kts | 185° |
| 2026-05-08 02:32 | 38.96935 | -77.15189 | 2986 ft | 169 kts | 172° |
| 2026-05-08 02:33 | 38.95880 | -77.14599 | 2850 ft | 164 kts | 147° |
| 2026-05-08 02:33 | 38.95009 | -77.13653 | 2666 ft | 163 kts | 141° |
| 2026-05-08 02:33 | 38.94158 | -77.12708 | 2376 ft | 160 kts | 141° |
| 2026-05-08 02:33 | 38.93314 | -77.11796 | 2111 ft | 157 kts | 148° |
| 2026-05-08 02:34 | 38.92405 | -77.11063 | 1902 ft | 153 kts | 154° |
| 2026-05-08 02:34 | 38.91592 | -77.10162 | 1660 ft | 156 kts | 135° |
| 2026-05-08 02:34 | 38.90943 | -77.09048 | 1446 ft | 156 kts | 126° |
| 2026-05-08 02:34 | 38.90429 | -77.07835 | 1191 ft | 153 kts | 121° |
| 2026-05-08 02:35 | 38.89888 | -77.06686 | 1000 ft | 149 kts | 133° |
| 2026-05-08 02:35 | 38.89199 | -77.05726 | 804 ft | 145 kts | 137° |
| 2026-05-08 02:35 | 38.88493 | -77.04841 | 635 ft | 140 kts | 142° |
| 2026-05-08 02:35 | 38.87694 | -77.04190 | 419 ft | 135 kts | 163° |
| 2026-05-08 02:36 | 38.86786 | -77.03946 | 213 ft | 136 kts | 176° |
| 2026-05-08 02:36 | 38.85861 | -77.03846 | 33 ft | 132 kts | 176° |
| 2026-05-08 02:36 | 38.85049 | -77.03766 | 24 ft | 89 kts | 175° |
| 2026-05-08 02:36 | 38.84719 | -77.03733 | 24 ft | 19 kts | 175° |
| 2026-05-08 02:37 | 38.84591 | -77.03719 | 26 ft | 18 kts | 175° |
| 2026-05-08 02:37 | 38.84470 | -77.03708 | 24 ft | 17 kts | 184° |
| 2026-05-08 02:37 | 38.84394 | -77.03774 | 25 ft | 12 kts | 257° |
| 2026-05-08 02:37 | 38.84423 | -77.03844 | 25 ft | 8 kts | 343° |
| 2026-05-08 02:38 | 38.84478 | -77.03848 | 27 ft | 8 kts | 358° |
| 2026-05-08 02:38 | 38.84548 | -77.03854 | 24 ft | 14 kts | 355° |
| 2026-05-08 02:38 | 38.84640 | -77.03866 | 25 ft | 13 kts | 353° |
| 2026-05-08 02:38 | 38.84725 | -77.03875 | 27 ft | 12 kts | 355° |
| 2026-05-08 02:39 | 38.84807 | -77.03882 | 24 ft | 11 kts | 357° |
| 2026-05-08 02:39 | 38.84872 | -77.03917 | 24 ft | 10 kts | 300° |
| 2026-05-08 02:39 | 38.84926 | -77.03954 | 24 ft | 9 kts | 354° |
| 2026-05-08 02:39 | 38.84982 | -77.03960 | 24 ft | 7 kts | 355° |
| 2026-05-08 02:40 | 38.85030 | -77.03966 | 24 ft | 6 kts | 356° |
| 2026-05-08 02:40 | 38.85069 | -77.03969 | 24 ft | 5 kts | 354° |
| 2026-05-08 02:40 | 38.85097 | -77.03985 | 24 ft | 4 kts | 320° |
| 2026-05-08 02:40 | 38.85111 | -77.04049 | 24 ft | 11 kts | 290° |
| 2026-05-08 02:41 | 38.85143 | -77.04091 | 24 ft | 3 kts | 319° |
| 2026-05-08 02:41 | 38.85148 | -77.04097 | 24 ft | 0 kts | 319° |